Terminal Aerodrome Forecast
Issued by NWS

Home | Current Version | Previous Version | Text Only | Print | Product List | Glossary On
Versions: 1 2 3 4 5 6 7 8 9 10 11 12
000
FTUS42 TJSJ 262339
TAFJMZ
TAF
TJMZ 262339Z 2700/2724 06007KT P6SM VCSH SCT025 SCT070
     FM270400 07008KT P6SM FEW025
     FM271500 08012KT P6SM VCSH SCT025 SCT040 SCT060
     FM272200 06006KT P6SM SCT025 SCT070
      AMD NOT SKED=

USA.gov is the U.S. government's official web portal to all federal, state and local government web resources and services.